sensor_id;sensor_type;location;lat;lon;timestamp;pressure;altitude;pressure_sealevel;temperature;humidity
72612;BME280;60655;52.182;4.474;2022-12-24T00:01:09;100621.69;;;9.93;90.85
72612;BME280;60655;52.182;4.474;2022-12-24T00:03:10;100622.94;;;9.90;90.66
72612;BME280;60655;52.182;4.474;2022-12-24T00:05:13;100613.50;;;9.94;90.77
72612;BME280;60655;52.182;4.474;2022-12-24T00:07:14;100608.41;;;9.93;90.41
72612;BME280;60655;52.182;4.474;2022-12-24T00:09:17;100616.72;;;10.03;90.14
72612;BME280;60655;52.182;4.474;2022-12-24T00:11:19;100623.25;;;10.00;90.13
72612;BME280;60655;52.182;4.474;2022-12-24T00:13:22;100626.00;;;9.87;90.85
72612;BME280;60655;52.182;4.474;2022-12-24T00:15:23;100624.38;;;9.86;90.89
72612;BME280;60655;52.182;4.474;2022-12-24T00:17:24;100604.31;;;9.72;90.86
72612;BME280;60655;52.182;4.474;2022-12-24T00:19:25;100626.72;;;10.01;90.33
72612;BME280;60655;52.182;4.474;2022-12-24T00:21:26;100631.50;;;9.92;90.17
72612;BME280;60655;52.182;4.474;2022-12-24T00:23:27;100615.31;;;9.75;90.72
72612;BME280;60655;52.182;4.474;2022-12-24T00:25:48;100637.34;;;9.76;91.13
72612;BME280;60655;52.182;4.474;2022-12-24T00:27:49;100630.88;;;9.65;91.03
72612;BME280;60655;52.182;4.474;2022-12-24T00:29:52;100637.34;;;9.76;91.14
72612;BME280;60655;52.182;4.474;2022-12-24T00:31:52;100630.66;;;9.67;91.52
72612;BME280;60655;52.182;4.474;2022-12-24T00:33:53;100638.41;;;9.68;91.82
72612;BME280;60655;52.182;4.474;2022-12-24T00:35:54;100628.00;;;9.67;91.49
72612;BME280;60655;52.182;4.474;2022-12-24T00:38:16;100642.31;;;9.66;91.58
72612;BME280;60655;52.182;4.474;2022-12-24T00:40:17;100645.34;;;9.69;91.14
72612;BME280;60655;52.182;4.474;2022-12-24T00:42:19;100638.84;;;9.65;91.02
72612;BME280;60655;52.182;4.474;2022-12-24T00:44:20;100643.94;;;9.67;90.89
72612;BME280;60655;52.182;4.474;2022-12-24T00:46:42;100656.16;;;9.68;91.07
72612;BME280;60655;52.182;4.474;2022-12-24T00:48:43;100658.84;;;9.61;91.29
72612;BME280;60655;52.182;4.474;2022-12-24T00:50:44;100672.50;;;9.65;90.99
72612;BME280;60655;52.182;4.474;2022-12-24T00:52:45;100674.56;;;9.63;91.07
72612;BME280;60655;52.182;4.474;2022-12-24T00:54:46;100674.56;;;9.63;91.25
72612;BME280;60655;52.182;4.474;2022-12-24T00:57:07;100679.00;;;9.69;90.92
72612;BME280;60655;52.182;4.474;2022-12-24T00:59:08;100685.50;;;9.73;90.76
72612;BME280;60655;52.182;4.474;2022-12-24T01:01:09;100686.38;;;9.67;90.99
72612;BME280;60655;52.182;4.474;2022-12-24T01:03:10;100671.09;;;9.62;91.33
72612;BME280;60655;52.182;4.474;2022-12-24T01:05:12;100682.09;;;9.66;91.00
72612;BME280;60655;52.182;4.474;2022-12-24T01:07:13;100694.09;;;9.68;90.86
72612;BME280;60655;52.182;4.474;2022-12-24T01:09:14;100688.97;;;9.73;90.99
72612;BME280;60655;52.182;4.474;2022-12-24T01:11:16;100692.06;;;9.70;90.86
72612;BME280;60655;52.182;4.474;2022-12-24T01:13:17;100683.94;;;9.65;91.23
72612;BME280;60655;52.182;4.474;2022-12-24T01:15:18;100698.59;;;9.68;90.93
72612;BME280;60655;52.182;4.474;2022-12-24T01:17:19;100689.47;;;9.57;91.30
72612;BME280;60655;52.182;4.474;2022-12-24T01:19:20;100702.31;;;9.60;91.31
72612;BME280;60655;52.182;4.474;2022-12-24T01:21:24;100700.50;;;9.54;91.69
72612;BME280;60655;52.182;4.474;2022-12-24T01:23:25;100706.38;;;9.63;91.31
72612;BME280;60655;52.182;4.474;2022-12-24T01:25:27;100706.75;;;9.73;90.65
72612;BME280;60655;52.182;4.474;2022-12-24T01:27:28;100691.28;;;9.63;90.31
72612;BME280;60655;52.182;4.474;2022-12-24T01:29:29;100701.88;;;9.63;90.93
72612;BME280;60655;52.182;4.474;2022-12-24T01:31:30;100702.78;;;9.51;91.64
72612;BME280;60655;52.182;4.474;2022-12-24T01:33:33;100692.53;;;9.54;91.67
72612;BME280;60655;52.182;4.474;2022-12-24T01:35:34;100705.34;;;9.64;91.25
72612;BME280;60655;52.182;4.474;2022-12-24T01:37:41;100705.56;;;9.62;91.05
72612;BME280;60655;52.182;4.474;2022-12-24T01:39:42;100708.44;;;9.61;91.40
72612;BME280;60655;52.182;4.474;2022-12-24T01:41:44;100722.72;;;9.60;91.77
72612;BME280;60655;52.182;4.474;2022-12-24T01:46:24;100721.50;;;9.56;91.83
72612;BME280;60655;52.182;4.474;2022-12-24T01:48:40;100723.78;;;9.52;91.97
72612;BME280;60655;52.182;4.474;2022-12-24T01:50:42;100729.25;;;9.57;91.97
72612;BME280;60655;52.182;4.474;2022-12-24T01:52:43;100733.94;;;9.55;91.85
72612;BME280;60655;52.182;4.474;2022-12-24T01:55:14;100740.69;;;9.58;91.61
72612;BME280;60655;52.182;4.474;2022-12-24T01:57:32;100723.72;;;9.65;90.68
72612;BME280;60655;52.182;4.474;2022-12-24T01:59:35;100742.28;;;9.65;90.89
72612;BME280;60655;52.182;4.474;2022-12-24T02:01:38;100741.03;;;9.68;90.68
72612;BME280;60655;52.182;4.474;2022-12-24T02:03:39;100732.31;;;9.54;90.88
72612;BME280;60655;52.182;4.474;2022-12-24T02:05:49;100738.84;;;9.58;90.93
72612;BME280;60655;52.182;4.474;2022-12-24T02:07:51;100722.16;;;9.51;90.63
72612;BME280;60655;52.182;4.474;2022-12-24T02:09:56;100760.63;;;9.67;90.44
72612;BME280;60655;52.182;4.474;2022-12-24T02:11:57;100744.78;;;9.54;90.79
72612;BME280;60655;52.182;4.474;2022-12-24T02:14:00;100767.56;;;9.68;90.23
72612;BME280;60655;52.182;4.474;2022-12-24T02:16:16;100773.91;;;9.67;90.58
72612;BME280;60655;52.182;4.474;2022-12-24T02:28:24;100771.81;;;9.75;90.02
72612;BME280;60655;52.182;4.474;2022-12-24T02:30:35;100769.78;;;9.77;90.37
72612;BME280;60655;52.182;4.474;2022-12-24T02:32:56;100767.88;;;9.85;90.00
72612;BME280;60655;52.182;4.474;2022-12-24T02:37:19;100770.09;;;9.88;90.07
72612;BME280;60655;52.182;4.474;2022-12-24T02:39:39;100771.91;;;9.94;89.67
72612;BME280;60655;52.182;4.474;2022-12-24T02:41:47;100772.53;;;9.89;89.74
72612;BME280;60655;52.182;4.474;2022-12-24T02:44:08;100767.38;;;10.01;89.58
72612;BME280;60655;52.182;4.474;2022-12-24T02:46:21;100775.97;;;9.96;89.83
72612;BME280;60655;52.182;4.474;2022-12-24T02:48:22;100785.53;;;10.04;89.38
72612;BME280;60655;52.182;4.474;2022-12-24T02:50:26;100787.41;;;9.97;89.59
72612;BME280;60655;52.182;4.474;2022-12-24T02:52:31;100783.31;;;10.01;89.42
72612;BME280;60655;52.182;4.474;2022-12-24T02:54:33;100792.94;;;9.95;89.73
72612;BME280;60655;52.182;4.474;2022-12-24T02:57:02;100800.03;;;10.01;89.24
72612;BME280;60655;52.182;4.474;2022-12-24T03:01:49;100793.72;;;10.02;89.05
72612;BME280;60655;52.182;4.474;2022-12-24T03:04:18;100790.88;;;9.97;88.94
72612;BME280;60655;52.182;4.474;2022-12-24T03:07:32;100797.34;;;10.08;88.88
72612;BME280;60655;52.182;4.474;2022-12-24T03:09:24;100783.75;;;9.91;88.90
72612;BME280;60655;52.182;4.474;2022-12-24T03:11:25;100795.16;;;9.98;89.43
72612;BME280;60655;52.182;4.474;2022-12-24T03:13:27;100765.09;;;9.73;89.73
72612;BME280;60655;52.182;4.474;2022-12-24T03:15:30;100805.78;;;9.98;89.91
72612;BME280;60655;52.182;4.474;2022-12-24T03:17:34;100803.72;;;10.00;89.91
72612;BME280;60655;52.182;4.474;2022-12-24T03:19:39;100799.41;;;10.06;89.73
72612;BME280;60655;52.182;4.474;2022-12-24T03:21:41;100793.16;;;9.87;90.07
72612;BME280;60655;52.182;4.474;2022-12-24T03:23:44;100817.50;;;10.15;88.94
72612;BME280;60655;52.182;4.474;2022-12-24T03:25:45;100817.78;;;10.07;89.45
72612;BME280;60655;52.182;4.474;2022-12-24T03:27:47;100816.56;;;10.03;89.80
72612;BME280;60655;52.182;4.474;2022-12-24T03:29:48;100817.19;;;10.05;89.54
72612;BME280;60655;52.182;4.474;2022-12-24T03:31:52;100825.13;;;10.05;89.93
72612;BME280;60655;52.182;4.474;2022-12-24T03:33:58;100823.44;;;10.11;89.56
72612;BME280;60655;52.182;4.474;2022-12-24T03:35:59;100815.97;;;10.01;90.16
72612;BME280;60655;52.182;4.474;2022-12-24T03:38:00;100829.41;;;10.06;90.02
72612;BME280;60655;52.182;4.474;2022-12-24T03:40:01;100833.31;;;10.04;90.12
72612;BME280;60655;52.182;4.474;2022-12-24T03:42:02;100830.56;;;10.17;89.58
72612;BME280;60655;52.182;4.474;2022-12-24T03:44:03;100798.13;;;9.77;90.77
72612;BME280;60655;52.182;4.474;2022-12-24T03:46:06;100817.84;;;9.94;91.12
72612;BME280;60655;52.182;4.474;2022-12-24T03:48:08;100823.09;;;10.07;90.39
72612;BME280;60655;52.182;4.474;2022-12-24T03:50:10;100823.09;;;10.07;90.80
72612;BME280;60655;52.182;4.474;2022-12-24T03:54:49;100842.94;;;9.98;91.25
72612;BME280;60655;52.182;4.474;2022-12-24T03:57:09;100819.41;;;10.08;90.95
72612;BME280;60655;52.182;4.474;2022-12-24T03:59:10;100834.34;;;10.03;91.11
72612;BME280;60655;52.182;4.474;2022-12-24T04:01:12;100816.38;;;9.98;90.93
72612;BME280;60655;52.182;4.474;2022-12-24T04:03:13;100834.13;;;10.04;91.03
72612;BME280;60655;52.182;4.474;2022-12-24T04:05:33;100825.78;;;10.01;90.96
72612;BME280;60655;52.182;4.474;2022-12-24T04:07:34;100832.72;;;9.95;91.17
72612;BME280;60655;52.182;4.474;2022-12-24T04:09:35;100843.56;;;9.94;91.57
72612;BME280;60655;52.182;4.474;2022-12-24T04:11:36;100825.38;;;9.97;91.22
72612;BME280;60655;52.182;4.474;2022-12-24T04:13:37;100832.31;;;9.98;91.07
72612;BME280;60655;52.182;4.474;2022-12-24T04:15:38;100836.63;;;9.93;91.59
72612;BME280;60655;52.182;4.474;2022-12-24T04:17:39;100844.34;;;10.01;91.07
72612;BME280;60655;52.182;4.474;2022-12-24T04:19:39;100834.78;;;9.93;91.47
72612;BME280;60655;52.182;4.474;2022-12-24T04:21:43;100848.81;;;10.07;90.76
72612;BME280;60655;52.182;4.474;2022-12-24T04:23:44;100837.53;;;10.11;90.43
72612;BME280;60655;52.182;4.474;2022-12-24T04:26:05;100837.00;;;10.03;90.80
72612;BME280;60655;52.182;4.474;2022-12-24T04:28:06;100851.88;;;10.04;90.69
72612;BME280;60655;52.182;4.474;2022-12-24T04:32:45;100855.69;;;10.14;90.34
72612;BME280;60655;52.182;4.474;2022-12-24T04:34:48;100850.81;;;10.11;90.49
72612;BME280;60655;52.182;4.474;2022-12-24T04:36:49;100854.47;;;10.17;90.27
72612;BME280;60655;52.182;4.474;2022-12-24T04:38:50;100858.13;;;10.16;90.58
72612;BME280;60655;52.182;4.474;2022-12-24T04:41:04;100849.03;;;10.05;90.49
72612;BME280;60655;52.182;4.474;2022-12-24T04:43:05;100861.88;;;10.08;90.60
72612;BME280;60655;52.182;4.474;2022-12-24T04:45:08;100860.56;;;10.18;90.21
72612;BME280;60655;52.182;4.474;2022-12-24T04:47:09;100856.72;;;10.13;90.10
72612;BME280;60655;52.182;4.474;2022-12-24T04:49:10;100852.50;;;10.06;90.76
72612;BME280;60655;52.182;4.474;2022-12-24T04:51:12;100859.03;;;10.03;90.79
72612;BME280;60655;52.182;4.474;2022-12-24T04:53:13;100882.25;;;10.14;90.60
72612;BME280;60655;52.182;4.474;2022-12-24T04:55:15;100864.69;;;10.13;90.14
72612;BME280;60655;52.182;4.474;2022-12-24T04:57:16;100876.50;;;10.18;89.95
72612;BME280;60655;52.182;4.474;2022-12-24T04:59:20;100874.69;;;10.11;90.41
72612;BME280;60655;52.182;4.474;2022-12-24T05:01:26;100877.19;;;10.06;91.11
72612;BME280;60655;52.182;4.474;2022-12-24T05:03:27;100868.63;;;10.04;91.03
72612;BME280;60655;52.182;4.474;2022-12-24T05:05:30;100878.81;;;10.07;91.74
72612;BME280;60655;52.182;4.474;2022-12-24T05:07:33;100838.69;;;9.84;91.77
72612;BME280;60655;52.182;4.474;2022-12-24T05:09:34;100874.41;;;9.88;92.17
72612;BME280;60655;52.182;4.474;2022-12-24T05:11:35;100881.72;;;9.99;91.71
72612;BME280;60655;52.182;4.474;2022-12-24T05:13:36;100850.72;;;9.87;91.21
72612;BME280;60655;52.182;4.474;2022-12-24T05:15:38;100877.81;;;10.02;91.21
72612;BME280;60655;52.182;4.474;2022-12-24T05:17:39;100853.78;;;9.90;90.86
72612;BME280;60655;52.182;4.474;2022-12-24T05:19:40;100884.16;;;10.01;90.97
72612;BME280;60655;52.182;4.474;2022-12-24T05:21:41;100882.91;;;10.03;90.91
72612;BME280;60655;52.182;4.474;2022-12-24T05:23:43;100838.31;;;9.80;90.45
72612;BME280;60655;52.182;4.474;2022-12-24T05:26:04;100876.00;;;9.96;91.04
72612;BME280;60655;52.182;4.474;2022-12-24T05:28:24;100872.50;;;10.02;90.10
72612;BME280;60655;52.182;4.474;2022-12-24T05:30:25;100889.81;;;10.11;90.56
72612;BME280;60655;52.182;4.474;2022-12-24T05:32:26;100884.88;;;10.14;90.10
72612;BME280;60655;52.182;4.474;2022-12-24T05:34:30;100869.84;;;10.02;90.16
72612;BME280;60655;52.182;4.474;2022-12-24T05:36:31;100873.13;;;10.04;90.52
72612;BME280;60655;52.182;4.474;2022-12-24T05:38:33;100885.91;;;10.13;90.15
72612;BME280;60655;52.182;4.474;2022-12-24T05:40:34;100882.44;;;10.13;90.24
72612;BME280;60655;52.182;4.474;2022-12-24T05:42:35;100883.72;;;10.10;90.11
72612;BME280;60655;52.182;4.474;2022-12-24T05:44:36;100889.78;;;10.24;89.34
72612;BME280;60655;52.182;4.474;2022-12-24T05:46:37;100898.00;;;10.09;89.71
72612;BME280;60655;52.182;4.474;2022-12-24T05:48:38;100897.13;;;10.15;89.76
72612;BME280;60655;52.182;4.474;2022-12-24T05:50:41;100886.53;;;10.15;88.77
72612;BME280;60655;52.182;4.474;2022-12-24T05:52:42;100900.41;;;10.18;89.32
72612;BME280;60655;52.182;4.474;2022-12-24T05:54:42;100898.22;;;10.08;89.83
72612;BME280;60655;52.182;4.474;2022-12-24T05:56:45;100901.09;;;10.06;89.72
72612;BME280;60655;52.182;4.474;2022-12-24T05:58:46;100877.63;;;9.97;89.42
72612;BME280;60655;52.182;4.474;2022-12-24T06:00:52;100912.25;;;10.22;89.02
72612;BME280;60655;52.182;4.474;2022-12-24T06:02:54;100907.75;;;10.15;89.44
72612;BME280;60655;52.182;4.474;2022-12-24T06:04:57;100919.25;;;10.09;89.48
72612;BME280;60655;52.182;4.474;2022-12-24T06:06:58;100921.31;;;10.01;90.21
72612;BME280;60655;52.182;4.474;2022-12-24T06:08:59;100917.03;;;10.00;89.94
72612;BME280;60655;52.182;4.474;2022-12-24T06:11:05;100925.00;;;10.00;89.93
72612;BME280;60655;52.182;4.474;2022-12-24T06:13:06;100922.72;;;10.03;89.52
72612;BME280;60655;52.182;4.474;2022-12-24T06:15:09;100896.47;;;9.82;89.90
72612;BME280;60655;52.182;4.474;2022-12-24T06:17:10;100936.81;;;10.04;89.97
72612;BME280;60655;52.182;4.474;2022-12-24T06:19:13;100926.19;;;10.04;89.36
72612;BME280;60655;52.182;4.474;2022-12-24T06:21:15;100931.72;;;10.02;89.14
72612;BME280;60655;52.182;4.474;2022-12-24T06:23:17;100949.00;;;10.11;88.90
72612;BME280;60655;52.182;4.474;2022-12-24T06:25:18;100955.19;;;10.05;88.84
72612;BME280;60655;52.182;4.474;2022-12-24T06:27:19;100946.84;;;9.89;89.84
72612;BME280;60655;52.182;4.474;2022-12-24T06:29:20;100954.97;;;10.07;88.89
72612;BME280;60655;52.182;4.474;2022-12-24T06:31:23;100962.94;;;10.07;88.67
72612;BME280;60655;52.182;4.474;2022-12-24T06:33:24;100950.91;;;9.98;89.00
72612;BME280;60655;52.182;4.474;2022-12-24T06:35:26;100952.94;;;10.02;89.17
72612;BME280;60655;52.182;4.474;2022-12-24T06:37:27;100937.63;;;10.04;88.36
72612;BME280;60655;52.182;4.474;2022-12-24T06:39:28;100939.06;;;10.00;88.81
72612;BME280;60655;52.182;4.474;2022-12-24T06:41:29;100958.25;;;10.02;88.88
72612;BME280;60655;52.182;4.474;2022-12-24T06:43:30;100952.75;;;10.04;88.77
72612;BME280;60655;52.182;4.474;2022-12-24T06:45:31;100921.38;;;9.81;88.58
72612;BME280;60655;52.182;4.474;2022-12-24T06:47:33;100955.19;;;10.05;88.67
72612;BME280;60655;52.182;4.474;2022-12-24T06:49:34;100951.94;;;10.03;88.65
72612;BME280;60655;52.182;4.474;2022-12-24T06:51:35;100942.72;;;10.06;87.90
72612;BME280;60655;52.182;4.474;2022-12-24T06:53:36;100952.94;;;10.09;88.12
72612;BME280;60655;52.182;4.474;2022-12-24T06:55:38;100963.34;;;10.04;88.39
72612;BME280;60655;52.182;4.474;2022-12-24T06:57:39;100960.50;;;9.99;88.83
72612;BME280;60655;52.182;4.474;2022-12-24T06:59:40;100956.63;;;10.01;88.89
72612;BME280;60655;52.182;4.474;2022-12-24T07:01:43;100959.91;;;9.97;88.93
72612;BME280;60655;52.182;4.474;2022-12-24T07:03:44;100955.22;;;9.92;88.85
72612;BME280;60655;52.182;4.474;2022-12-24T07:05:46;100967.66;;;9.98;88.86
72612;BME280;60655;52.182;4.474;2022-12-24T07:07:47;100973.38;;;10.02;88.81
72612;BME280;60655;52.182;4.474;2022-12-24T07:09:48;100955.00;;;10.00;88.55
72612;BME280;60655;52.182;4.474;2022-12-24T07:11:49;100963.97;;;9.99;88.98
72612;BME280;60655;52.182;4.474;2022-12-24T07:13:50;100971.13;;;9.99;88.72
72612;BME280;60655;52.182;4.474;2022-12-24T07:15:59;100963.78;;;9.94;88.94
72612;BME280;60655;52.182;4.474;2022-12-24T07:18:01;100973.78;;;10.05;88.49
72612;BME280;60655;52.182;4.474;2022-12-24T07:20:02;100977.69;;;9.90;89.07
72612;BME280;60655;52.182;4.474;2022-12-24T07:22:04;100988.28;;;9.90;89.39
72612;BME280;60655;52.182;4.474;2022-12-24T07:24:05;100989.09;;;9.97;89.26
72612;BME280;60655;52.182;4.474;2022-12-24T07:26:09;101002.97;;;9.99;88.58
72612;BME280;60655;52.182;4.474;2022-12-24T07:28:10;100993.19;;;9.99;88.66
72612;BME280;60655;52.182;4.474;2022-12-24T07:30:30;100996.25;;;9.96;88.85
72612;BME280;60655;52.182;4.474;2022-12-24T07:32:31;100990.75;;;9.85;89.64
72612;BME280;60655;52.182;4.474;2022-12-24T07:34:34;100992.56;;;9.91;88.79
72612;BME280;60655;52.182;4.474;2022-12-24T07:36:35;101006.44;;;9.99;88.39
72612;BME280;60655;52.182;4.474;2022-12-24T07:38:36;101019.09;;;10.04;88.43
72612;BME280;60655;52.182;4.474;2022-12-24T07:40:37;101020.94;;;10.03;88.44
72612;BME280;60655;52.182;4.474;2022-12-24T07:42:38;101025.44;;;9.96;88.78
72612;BME280;60655;52.182;4.474;2022-12-24T07:44:39;101031.97;;;10.00;88.65
72612;BME280;60655;52.182;4.474;2022-12-24T07:46:43;101036.03;;;10.09;88.20
72612;BME280;60655;52.182;4.474;2022-12-24T07:48:44;101041.56;;;10.08;88.40
72612;BME280;60655;52.182;4.474;2022-12-24T07:50:48;101024.41;;;9.91;88.50
72612;BME280;60655;52.182;4.474;2022-12-24T07:52:49;101034.22;;;10.03;87.93
72612;BME280;60655;52.182;4.474;2022-12-24T07:54:49;101046.25;;;9.99;89.21
72612;BME280;60655;52.182;4.474;2022-12-24T07:56:50;101052.38;;;10.06;88.12
72612;BME280;60655;52.182;4.474;2022-12-24T07:58:51;101050.34;;;10.08;88.00
72612;BME280;60655;52.182;4.474;2022-12-24T08:00:57;101060.75;;;10.10;88.70
72612;BME280;60655;52.182;4.474;2022-12-24T08:02:58;101055.59;;;10.15;87.48
72612;BME280;60655;52.182;4.474;2022-12-24T08:04:59;101075.25;;;10.07;88.58
72612;BME280;60655;52.182;4.474;2022-12-24T08:07:05;101064.78;;;10.12;87.95
72612;BME280;60655;52.182;4.474;2022-12-24T08:09:06;101072.38;;;10.02;88.83
72612;BME280;60655;52.182;4.474;2022-12-24T08:11:07;101050.13;;;9.90;88.78
72612;BME280;60655;52.182;4.474;2022-12-24T08:13:08;101080.53;;;10.07;88.21
72612;BME280;60655;52.182;4.474;2022-12-24T08:15:09;101081.97;;;10.03;88.60
72612;BME280;60655;52.182;4.474;2022-12-24T08:17:11;101081.97;;;10.03;88.65
72612;BME280;60655;52.182;4.474;2022-12-24T08:19:11;101085.44;;;10.10;88.00
72612;BME280;60655;52.182;4.474;2022-12-24T08:21:12;101082.19;;;9.95;88.82
72612;BME280;60655;52.182;4.474;2022-12-24T08:23:14;101083.19;;;10.01;88.28
72612;BME280;60655;52.182;4.474;2022-12-24T08:25:15;101093.00;;;10.00;87.89
72612;BME280;60655;52.182;4.474;2022-12-24T08:27:17;101083.00;;;9.89;88.58
72612;BME280;60655;52.182;4.474;2022-12-24T08:29:18;101100.16;;;9.93;88.99
72612;BME280;60655;52.182;4.474;2022-12-24T08:31:19;101104.03;;;9.91;89.02
72612;BME280;60655;52.182;4.474;2022-12-24T08:33:22;101109.13;;;9.99;88.70
72612;BME280;60655;52.182;4.474;2022-12-24T08:35:23;101086.28;;;9.78;89.23
72612;BME280;60655;52.182;4.474;2022-12-24T08:37:24;101109.53;;;9.89;89.64
72612;BME280;60655;52.182;4.474;2022-12-24T08:39:25;101117.50;;;10.09;88.76
72612;BME280;60655;52.182;4.474;2022-12-24T08:41:26;101132.38;;;10.16;88.30
72612;BME280;60655;52.182;4.474;2022-12-24T08:43:27;101116.69;;;9.95;88.83
72612;BME280;60655;52.182;4.474;2022-12-24T08:45:47;101143.03;;;10.03;89.29
72612;BME280;60655;52.182;4.474;2022-12-24T08:47:51;101125.25;;;9.97;89.33
72612;BME280;60655;52.182;4.474;2022-12-24T08:50:11;101140.97;;;10.12;88.67
72612;BME280;60655;52.182;4.474;2022-12-24T08:52:12;101145.28;;;10.00;89.20
72612;BME280;60655;52.182;4.474;2022-12-24T08:54:13;101146.69;;;10.02;89.08
72612;BME280;60655;52.182;4.474;2022-12-24T08:56:14;101151.81;;;10.04;89.05
72612;BME280;60655;52.182;4.474;2022-12-24T08:58:15;101145.66;;;9.97;89.45
72612;BME280;60655;52.182;4.474;2022-12-24T09:00:17;101159.34;;;10.00;89.38
72612;BME280;60655;52.182;4.474;2022-12-24T09:02:19;101151.00;;;10.03;89.21
72612;BME280;60655;52.182;4.474;2022-12-24T09:04:20;101162.19;;;9.92;89.67
72612;BME280;60655;52.182;4.474;2022-12-24T09:06:21;101170.16;;;9.86;90.16
72612;BME280;60655;52.182;4.474;2022-12-24T09:08:23;101168.94;;;9.88;90.07
72612;BME280;60655;52.182;4.474;2022-12-24T09:10:24;101172.19;;;9.90;90.02
72612;BME280;60655;52.182;4.474;2022-12-24T09:12:26;101139.13;;;9.73;89.74
72612;BME280;60655;52.182;4.474;2022-12-24T09:14:27;101174.44;;;9.87;90.01
72612;BME280;60655;52.182;4.474;2022-12-24T09:16:46;101185.91;;;10.00;89.61
72612;BME280;60655;52.182;4.474;2022-12-24T09:18:47;101181.00;;;9.97;89.37
72612;BME280;60655;52.182;4.474;2022-12-24T09:20:48;101184.66;;;9.90;90.15
72612;BME280;60655;52.182;4.474;2022-12-24T09:22:49;101193.66;;;10.08;89.51
72612;BME280;60655;52.182;4.474;2022-12-24T09:24:52;101181.00;;;10.04;89.23
72612;BME280;60655;52.182;4.474;2022-12-24T09:26:53;101193.47;;;10.10;89.44
72612;BME280;60655;52.182;4.474;2022-12-24T09:28:55;101195.91;;;9.98;90.17
72612;BME280;60655;52.182;4.474;2022-12-24T09:31:02;101196.91;;;9.97;90.03
72612;BME280;60655;52.182;4.474;2022-12-24T09:33:03;101200.19;;;10.12;89.47
72612;BME280;60655;52.182;4.474;2022-12-24T09:35:07;101196.94;;;10.04;89.67
72612;BME280;60655;52.182;4.474;2022-12-24T09:37:08;101173.63;;;9.86;89.59
72612;BME280;60655;52.182;4.474;2022-12-24T09:39:09;101199.38;;;9.99;90.15
72612;BME280;60655;52.182;4.474;2022-12-24T09:43:36;101202.84;;;9.99;90.56
72612;BME280;60655;52.182;4.474;2022-12-24T09:45:43;101205.69;;;9.98;90.33
72612;BME280;60655;52.182;4.474;2022-12-24T09:48:11;101205.13;;;10.22;88.78
72612;BME280;60655;52.182;4.474;2022-12-24T09:50:37;101214.91;;;10.08;89.19
72612;BME280;60655;52.182;4.474;2022-12-24T09:52:42;101217.97;;;10.05;89.57
72612;BME280;60655;52.182;4.474;2022-12-24T09:54:56;101216.09;;;10.12;89.17
72612;BME280;60655;52.182;4.474;2022-12-24T09:57:04;101214.69;;;10.10;89.61
72612;BME280;60655;52.182;4.474;2022-12-24T09:59:12;101218.00;;;10.25;88.46
72612;BME280;60655;52.182;4.474;2022-12-24T10:01:15;101217.56;;;10.22;89.00
72612;BME280;60655;52.182;4.474;2022-12-24T10:03:37;101230.03;;;10.28;88.83
72612;BME280;60655;52.182;4.474;2022-12-24T10:06:11;101234.94;;;10.24;88.11
72612;BME280;60655;52.182;4.474;2022-12-24T10:08:31;101239.44;;;10.24;88.61
72612;BME280;60655;52.182;4.474;2022-12-24T10:10:41;101230.66;;;10.30;87.43
72612;BME280;60655;52.182;4.474;2022-12-24T10:13:03;101227.16;;;10.49;86.97
72612;BME280;60655;52.182;4.474;2022-12-24T10:19:49;101232.88;;;10.66;86.37
72612;BME280;60655;52.182;4.474;2022-12-24T10:22:06;101233.28;;;10.56;86.34
72612;BME280;60655;52.182;4.474;2022-12-24T10:24:26;101228.59;;;10.58;86.47
72612;BME280;60655;52.182;4.474;2022-12-24T10:26:41;101236.38;;;10.53;86.45
72612;BME280;60655;52.182;4.474;2022-12-24T10:28:53;101230.44;;;10.64;86.31
72612;BME280;60655;52.182;4.474;2022-12-24T10:31:01;101241.88;;;10.58;86.52
72612;BME280;60655;52.182;4.474;2022-12-24T10:33:11;101234.53;;;10.60;86.35
72612;BME280;60655;52.182;4.474;2022-12-24T10:37:22;101240.03;;;10.52;86.81
72612;BME280;60655;52.182;4.474;2022-12-24T10:39:25;101242.66;;;10.78;85.90
72612;BME280;60655;52.182;4.474;2022-12-24T10:41:27;101233.50;;;10.68;85.64
72612;BME280;60655;52.182;4.474;2022-12-24T10:43:29;101220.22;;;10.55;86.34
72612;BME280;60655;52.182;4.474;2022-12-24T10:45:36;101235.75;;;10.64;86.17
72612;BME280;60655;52.182;4.474;2022-12-24T10:47:40;101239.41;;;10.70;86.34
72612;BME280;60655;52.182;4.474;2022-12-24T10:49:46;101243.28;;;10.80;85.34
72612;BME280;60655;52.182;4.474;2022-12-24T10:52:00;101247.38;;;10.70;85.74
72612;BME280;60655;52.182;4.474;2022-12-24T10:54:14;101250.66;;;10.65;85.65
72612;BME280;60655;52.182;4.474;2022-12-24T10:56:17;101259.25;;;10.41;85.85
72612;BME280;60655;52.182;4.474;2022-12-24T10:58:20;101239.84;;;10.34;86.49
72612;BME280;60655;52.182;4.474;2022-12-24T11:00:23;101257.63;;;10.53;86.12
72612;BME280;60655;52.182;4.474;2022-12-24T11:02:35;101257.81;;;10.32;86.77
72612;BME280;60655;52.182;4.474;2022-12-24T11:04:45;101261.09;;;10.27;86.76
72612;BME280;60655;52.182;4.474;2022-12-24T11:09:19;101261.91;;;10.21;87.39
72612;BME280;60655;52.182;4.474;2022-12-24T11:11:21;101273.13;;;10.23;87.05
72612;BME280;60655;52.182;4.474;2022-12-24T11:13:30;101274.34;;;10.40;86.22
72612;BME280;60655;52.182;4.474;2022-12-24T11:15:33;101257.00;;;10.25;87.09
72612;BME280;60655;52.182;4.474;2022-12-24T11:17:37;101267.44;;;10.39;86.05
72612;BME280;60655;52.182;4.474;2022-12-24T11:19:38;101269.25;;;10.45;85.68
72612;BME280;60655;52.182;4.474;2022-12-24T11:21:40;101261.06;;;10.21;86.21
72612;BME280;60655;52.182;4.474;2022-12-24T11:23:48;101261.28;;;10.19;86.44
72612;BME280;60655;52.182;4.474;2022-12-24T11:25:50;101272.06;;;10.18;86.71
72612;BME280;60655;52.182;4.474;2022-12-24T11:27:55;101269.66;;;10.23;86.21
72612;BME280;60655;52.182;4.474;2022-12-24T11:32:19;101282.09;;;10.09;87.42